sensor_id;sensor_type;location;lat;lon;timestamp;P1;durP1;ratioP1;P2;durP2;ratioP2
83560;SDS011;73534;52.584;13.392;2024-02-26T00:00:47;27.65;;;21.95;;
83560;SDS011;73534;52.584;13.392;2024-02-26T00:03:12;25.93;;;23.00;;
83560;SDS011;73534;52.584;13.392;2024-02-26T00:05:38;28.63;;;22.07;;
83560;SDS011;73534;52.584;13.392;2024-02-26T00:08:04;27.27;;;22.00;;
83560;SDS011;73534;52.584;13.392;2024-02-26T00:10:29;28.88;;;21.73;;
83560;SDS011;73534;52.584;13.392;2024-02-26T00:12:54;27.73;;;22.10;;
83560;SDS011;73534;52.584;13.392;2024-02-26T00:15:19;26.40;;;22.17;;
83560;SDS011;73534;52.584;13.392;2024-02-26T00:17:44;29.07;;;21.70;;
83560;SDS011;73534;52.584;13.392;2024-02-26T00:20:10;27.73;;;21.30;;
83560;SDS011;73534;52.584;13.392;2024-02-26T00:22:35;28.80;;;22.90;;
83560;SDS011;73534;52.584;13.392;2024-02-26T00:25:00;32.47;;;25.27;;
83560;SDS011;73534;52.584;13.392;2024-02-26T00:27:26;32.07;;;26.03;;
83560;SDS011;73534;52.584;13.392;2024-02-26T00:29:51;34.38;;;26.33;;
83560;SDS011;73534;52.584;13.392;2024-02-26T00:32:16;22.17;;;19.25;;
83560;SDS011;73534;52.584;13.392;2024-02-26T00:34:41;26.60;;;21.47;;
83560;SDS011;73534;52.584;13.392;2024-02-26T00:37:06;27.98;;;22.05;;
83560;SDS011;73534;52.584;13.392;2024-02-26T00:39:32;26.00;;;19.70;;
83560;SDS011;73534;52.584;13.392;2024-02-26T00:41:57;23.05;;;20.38;;
83560;SDS011;73534;52.584;13.392;2024-02-26T00:44:22;24.52;;;21.35;;
83560;SDS011;73534;52.584;13.392;2024-02-26T00:46:47;27.20;;;20.93;;
83560;SDS011;73534;52.584;13.392;2024-02-26T00:49:12;30.58;;;24.27;;
83560;SDS011;73534;52.584;13.392;2024-02-26T00:51:37;22.20;;;19.60;;
83560;SDS011;73534;52.584;13.392;2024-02-26T00:54:02;24.55;;;20.63;;
83560;SDS011;73534;52.584;13.392;2024-02-26T00:56:28;21.88;;;19.30;;
83560;SDS011;73534;52.584;13.392;2024-02-26T00:58:53;24.98;;;20.00;;
83560;SDS011;73534;52.584;13.392;2024-02-26T01:01:18;24.73;;;21.10;;
83560;SDS011;73534;52.584;13.392;2024-02-26T01:03:43;28.35;;;23.60;;
83560;SDS011;73534;52.584;13.392;2024-02-26T01:06:08;25.10;;;21.83;;
83560;SDS011;73534;52.584;13.392;2024-02-26T01:08:34;22.42;;;19.73;;
83560;SDS011;73534;52.584;13.392;2024-02-26T01:11:00;24.67;;;21.65;;
83560;SDS011;73534;52.584;13.392;2024-02-26T01:13:25;30.23;;;20.08;;
83560;SDS011;73534;52.584;13.392;2024-02-26T01:15:51;24.50;;;19.47;;
83560;SDS011;73534;52.584;13.392;2024-02-26T01:18:16;24.50;;;19.07;;
83560;SDS011;73534;52.584;13.392;2024-02-26T01:20:41;21.65;;;19.10;;
83560;SDS011;73534;52.584;13.392;2024-02-26T01:23:06;24.50;;;19.43;;
83560;SDS011;73534;52.584;13.392;2024-02-26T01:25:31;23.33;;;18.67;;
83560;SDS011;73534;52.584;13.392;2024-02-26T01:27:57;28.57;;;20.90;;
83560;SDS011;73534;52.584;13.392;2024-02-26T01:30:22;27.75;;;22.20;;
83560;SDS011;73534;52.584;13.392;2024-02-26T01:32:47;26.77;;;20.27;;
83560;SDS011;73534;52.584;13.392;2024-02-26T01:35:12;19.50;;;16.03;;
83560;SDS011;73534;52.584;13.392;2024-02-26T01:37:37;21.10;;;17.47;;
83560;SDS011;73534;52.584;13.392;2024-02-26T01:40:03;21.73;;;18.88;;
83560;SDS011;73534;52.584;13.392;2024-02-26T01:42:29;20.73;;;18.50;;
83560;SDS011;73534;52.584;13.392;2024-02-26T01:44:54;20.77;;;18.55;;
83560;SDS011;73534;52.584;13.392;2024-02-26T01:47:19;19.27;;;16.65;;
83560;SDS011;73534;52.584;13.392;2024-02-26T01:49:44;21.23;;;16.65;;
83560;SDS011;73534;52.584;13.392;2024-02-26T01:52:09;23.27;;;18.40;;
83560;SDS011;73534;52.584;13.392;2024-02-26T01:54:36;22.00;;;17.13;;
83560;SDS011;73534;52.584;13.392;2024-02-26T01:57:01;26.45;;;20.23;;
83560;SDS011;73534;52.584;13.392;2024-02-26T01:59:27;24.73;;;19.92;;
83560;SDS011;73534;52.584;13.392;2024-02-26T02:01:54;21.63;;;18.65;;
83560;SDS011;73534;52.584;13.392;2024-02-26T02:04:20;20.13;;;17.42;;
83560;SDS011;73534;52.584;13.392;2024-02-26T02:06:46;19.98;;;16.17;;
83560;SDS011;73534;52.584;13.392;2024-02-26T02:09:11;18.02;;;15.40;;
83560;SDS011;73534;52.584;13.392;2024-02-26T02:11:36;19.75;;;16.05;;
83560;SDS011;73534;52.584;13.392;2024-02-26T02:14:02;18.70;;;15.18;;
83560;SDS011;73534;52.584;13.392;2024-02-26T02:16:27;21.50;;;15.45;;
83560;SDS011;73534;52.584;13.392;2024-02-26T02:18:52;17.43;;;14.33;;
83560;SDS011;73534;52.584;13.392;2024-02-26T02:21:17;18.05;;;14.73;;
83560;SDS011;73534;52.584;13.392;2024-02-26T02:23:42;19.88;;;15.45;;
83560;SDS011;73534;52.584;13.392;2024-02-26T02:26:11;19.33;;;16.13;;
83560;SDS011;73534;52.584;13.392;2024-02-26T02:28:36;19.58;;;16.02;;
83560;SDS011;73534;52.584;13.392;2024-02-26T02:31:02;19.88;;;15.60;;
83560;SDS011;73534;52.584;13.392;2024-02-26T02:33:28;21.75;;;16.02;;
83560;SDS011;73534;52.584;13.392;2024-02-26T02:35:53;21.37;;;16.90;;
83560;SDS011;73534;52.584;13.392;2024-02-26T02:38:20;19.85;;;15.35;;
83560;SDS011;73534;52.584;13.392;2024-02-26T02:40:45;19.30;;;14.13;;
83560;SDS011;73534;52.584;13.392;2024-02-26T02:43:10;16.85;;;14.20;;
83560;SDS011;73534;52.584;13.392;2024-02-26T02:45:35;16.98;;;14.70;;
83560;SDS011;73534;52.584;13.392;2024-02-26T02:48:00;17.50;;;13.30;;
83560;SDS011;73534;52.584;13.392;2024-02-26T02:50:25;16.13;;;13.13;;
83560;SDS011;73534;52.584;13.392;2024-02-26T02:52:51;17.55;;;14.00;;
83560;SDS011;73534;52.584;13.392;2024-02-26T02:55:16;16.60;;;13.83;;
83560;SDS011;73534;52.584;13.392;2024-02-26T02:57:41;17.58;;;14.25;;
83560;SDS011;73534;52.584;13.392;2024-02-26T03:00:10;14.77;;;12.98;;
83560;SDS011;73534;52.584;13.392;2024-02-26T03:02:35;16.73;;;13.05;;
83560;SDS011;73534;52.584;13.392;2024-02-26T03:05:01;16.73;;;13.53;;
83560;SDS011;73534;52.584;13.392;2024-02-26T03:07:26;16.17;;;11.50;;
83560;SDS011;73534;52.584;13.392;2024-02-26T03:09:51;16.95;;;12.38;;
83560;SDS011;73534;52.584;13.392;2024-02-26T03:12:16;15.20;;;13.13;;
83560;SDS011;73534;52.584;13.392;2024-02-26T03:14:43;13.93;;;12.13;;
83560;SDS011;73534;52.584;13.392;2024-02-26T03:17:08;15.45;;;13.75;;
83560;SDS011;73534;52.584;13.392;2024-02-26T03:19:33;18.07;;;15.33;;
83560;SDS011;73534;52.584;13.392;2024-02-26T03:21:58;14.13;;;12.02;;
83560;SDS011;73534;52.584;13.392;2024-02-26T03:24:23;13.93;;;12.10;;
83560;SDS011;73534;52.584;13.392;2024-02-26T03:26:48;13.85;;;12.13;;
83560;SDS011;73534;52.584;13.392;2024-02-26T03:29:13;12.93;;;11.60;;
83560;SDS011;73534;52.584;13.392;2024-02-26T03:31:38;15.93;;;13.20;;
83560;SDS011;73534;52.584;13.392;2024-02-26T03:34:04;16.70;;;13.65;;
83560;SDS011;73534;52.584;13.392;2024-02-26T03:36:29;19.20;;;14.10;;
83560;SDS011;73534;52.584;13.392;2024-02-26T03:38:54;19.95;;;14.50;;
83560;SDS011;73534;52.584;13.392;2024-02-26T03:41:19;19.40;;;13.68;;
83560;SDS011;73534;52.584;13.392;2024-02-26T03:43:44;18.48;;;14.63;;
83560;SDS011;73534;52.584;13.392;2024-02-26T03:46:10;17.23;;;13.32;;
83560;SDS011;73534;52.584;13.392;2024-02-26T03:48:36;18.90;;;14.40;;
83560;SDS011;73534;52.584;13.392;2024-02-26T03:51:01;14.70;;;12.87;;
83560;SDS011;73534;52.584;13.392;2024-02-26T03:53:26;18.37;;;11.67;;
83560;SDS011;73534;52.584;13.392;2024-02-26T03:55:51;17.17;;;12.30;;
83560;SDS011;73534;52.584;13.392;2024-02-26T03:58:17;15.18;;;12.20;;
83560;SDS011;73534;52.584;13.392;2024-02-26T04:00:42;15.07;;;11.55;;
83560;SDS011;73534;52.584;13.392;2024-02-26T04:03:08;16.07;;;12.40;;
83560;SDS011;73534;52.584;13.392;2024-02-26T04:05:33;17.20;;;12.43;;
83560;SDS011;73534;52.584;13.392;2024-02-26T04:07:58;16.05;;;12.63;;
83560;SDS011;73534;52.584;13.392;2024-02-26T04:10:23;15.60;;;13.23;;
83560;SDS011;73534;52.584;13.392;2024-02-26T04:12:48;19.80;;;14.50;;
83560;SDS011;73534;52.584;13.392;2024-02-26T04:15:13;15.02;;;12.50;;
83560;SDS011;73534;52.584;13.392;2024-02-26T04:17:39;14.00;;;11.50;;
83560;SDS011;73534;52.584;13.392;2024-02-26T04:20:05;13.20;;;11.85;;
83560;SDS011;73534;52.584;13.392;2024-02-26T04:22:30;12.60;;;11.30;;
83560;SDS011;73534;52.584;13.392;2024-02-26T04:24:56;14.45;;;11.63;;
83560;SDS011;73534;52.584;13.392;2024-02-26T04:27:21;15.20;;;12.13;;
83560;SDS011;73534;52.584;13.392;2024-02-26T04:29:46;16.37;;;13.13;;
83560;SDS011;73534;52.584;13.392;2024-02-26T04:32:11;17.00;;;12.82;;
83560;SDS011;73534;52.584;13.392;2024-02-26T04:34:36;16.10;;;14.07;;
83560;SDS011;73534;52.584;13.392;2024-02-26T04:37:02;17.92;;;13.05;;
83560;SDS011;73534;52.584;13.392;2024-02-26T04:39:27;15.27;;;12.47;;
83560;SDS011;73534;52.584;13.392;2024-02-26T04:41:52;16.83;;;13.73;;
83560;SDS011;73534;52.584;13.392;2024-02-26T04:44:17;13.63;;;11.93;;
83560;SDS011;73534;52.584;13.392;2024-02-26T04:46:42;15.00;;;11.48;;
83560;SDS011;73534;52.584;13.392;2024-02-26T04:49:08;14.43;;;12.70;;
83560;SDS011;73534;52.584;13.392;2024-02-26T04:51:33;18.57;;;14.23;;
83560;SDS011;73534;52.584;13.392;2024-02-26T04:53:58;15.02;;;13.35;;
83560;SDS011;73534;52.584;13.392;2024-02-26T04:56:24;16.50;;;13.87;;
83560;SDS011;73534;52.584;13.392;2024-02-26T04:58:50;16.40;;;13.95;;
83560;SDS011;73534;52.584;13.392;2024-02-26T05:01:15;16.88;;;13.35;;
83560;SDS011;73534;52.584;13.392;2024-02-26T05:03:41;17.40;;;12.48;;
83560;SDS011;73534;52.584;13.392;2024-02-26T05:06:06;18.43;;;13.33;;
83560;SDS011;73534;52.584;13.392;2024-02-26T05:08:32;18.13;;;14.52;;
83560;SDS011;73534;52.584;13.392;2024-02-26T05:10:58;22.23;;;14.73;;
83560;SDS011;73534;52.584;13.392;2024-02-26T05:13:25;20.88;;;15.57;;
83560;SDS011;73534;52.584;13.392;2024-02-26T05:15:50;18.90;;;15.27;;
83560;SDS011;73534;52.584;13.392;2024-02-26T05:18:17;17.75;;;13.65;;
83560;SDS011;73534;52.584;13.392;2024-02-26T05:20:42;18.80;;;13.63;;
83560;SDS011;73534;52.584;13.392;2024-02-26T05:23:07;20.27;;;15.40;;
83560;SDS011;73534;52.584;13.392;2024-02-26T05:25:32;20.90;;;15.40;;
83560;SDS011;73534;52.584;13.392;2024-02-26T05:27:58;14.35;;;12.85;;
83560;SDS011;73534;52.584;13.392;2024-02-26T05:30:23;17.23;;;13.57;;
83560;SDS011;73534;52.584;13.392;2024-02-26T05:32:49;15.00;;;12.90;;
83560;SDS011;73534;52.584;13.392;2024-02-26T05:35:14;18.05;;;14.25;;
83560;SDS011;73534;52.584;13.392;2024-02-26T05:37:40;16.13;;;13.48;;
83560;SDS011;73534;52.584;13.392;2024-02-26T05:40:05;18.97;;;14.40;;
83560;SDS011;73534;52.584;13.392;2024-02-26T05:42:30;19.10;;;13.82;;
83560;SDS011;73534;52.584;13.392;2024-02-26T05:44:56;18.93;;;14.13;;
83560;SDS011;73534;52.584;13.392;2024-02-26T05:47:21;20.10;;;14.73;;
83560;SDS011;73534;52.584;13.392;2024-02-26T05:49:46;25.95;;;18.55;;
83560;SDS011;73534;52.584;13.392;2024-02-26T05:52:11;29.85;;;19.42;;
83560;SDS011;73534;52.584;13.392;2024-02-26T05:54:36;27.70;;;21.00;;
83560;SDS011;73534;52.584;13.392;2024-02-26T05:57:01;30.60;;;21.25;;
83560;SDS011;73534;52.584;13.392;2024-02-26T05:59:27;30.63;;;20.55;;
83560;SDS011;73534;52.584;13.392;2024-02-26T06:01:52;28.60;;;18.13;;
83560;SDS011;73534;52.584;13.392;2024-02-26T06:04:17;20.75;;;14.93;;
83560;SDS011;73534;52.584;13.392;2024-02-26T06:06:42;24.15;;;17.70;;
83560;SDS011;73534;52.584;13.392;2024-02-26T06:09:07;20.50;;;14.93;;
83560;SDS011;73534;52.584;13.392;2024-02-26T06:11:33;18.35;;;13.80;;
83560;SDS011;73534;52.584;13.392;2024-02-26T06:13:58;16.63;;;13.37;;
83560;SDS011;73534;52.584;13.392;2024-02-26T06:16:23;19.75;;;15.27;;
83560;SDS011;73534;52.584;13.392;2024-02-26T06:18:49;22.58;;;17.83;;
83560;SDS011;73534;52.584;13.392;2024-02-26T06:21:14;30.58;;;21.95;;
83560;SDS011;73534;52.584;13.392;2024-02-26T06:23:39;32.22;;;20.58;;
83560;SDS011;73534;52.584;13.392;2024-02-26T06:26:05;28.80;;;19.98;;
83560;SDS011;73534;52.584;13.392;2024-02-26T06:28:30;32.80;;;22.33;;
83560;SDS011;73534;52.584;13.392;2024-02-26T06:30:57;25.05;;;18.40;;
83560;SDS011;73534;52.584;13.392;2024-02-26T06:33:22;23.33;;;19.63;;
83560;SDS011;73534;52.584;13.392;2024-02-26T06:35:47;30.63;;;21.25;;
83560;SDS011;73534;52.584;13.392;2024-02-26T06:38:12;22.70;;;16.67;;
83560;SDS011;73534;52.584;13.392;2024-02-26T06:40:38;21.80;;;16.80;;
83560;SDS011;73534;52.584;13.392;2024-02-26T06:43:03;23.57;;;17.63;;
83560;SDS011;73534;52.584;13.392;2024-02-26T06:45:29;22.83;;;16.80;;
83560;SDS011;73534;52.584;13.392;2024-02-26T06:47:54;27.45;;;17.58;;
83560;SDS011;73534;52.584;13.392;2024-02-26T06:50:20;24.92;;;17.50;;
83560;SDS011;73534;52.584;13.392;2024-02-26T06:52:45;24.30;;;17.77;;
83560;SDS011;73534;52.584;13.392;2024-02-26T06:55:11;27.33;;;19.10;;
83560;SDS011;73534;52.584;13.392;2024-02-26T06:57:36;20.03;;;14.30;;
83560;SDS011;73534;52.584;13.392;2024-02-26T07:00:02;20.45;;;14.18;;
83560;SDS011;73534;52.584;13.392;2024-02-26T07:02:28;19.35;;;14.32;;
83560;SDS011;73534;52.584;13.392;2024-02-26T07:04:54;18.77;;;13.47;;
83560;SDS011;73534;52.584;13.392;2024-02-26T07:07:21;18.42;;;13.27;;
83560;SDS011;73534;52.584;13.392;2024-02-26T07:09:47;15.52;;;13.05;;
83560;SDS011;73534;52.584;13.392;2024-02-26T07:12:13;19.17;;;13.38;;
83560;SDS011;73534;52.584;13.392;2024-02-26T07:14:38;15.88;;;13.35;;
83560;SDS011;73534;52.584;13.392;2024-02-26T07:17:04;15.82;;;12.68;;
83560;SDS011;73534;52.584;13.392;2024-02-26T07:19:29;15.90;;;12.95;;
83560;SDS011;73534;52.584;13.392;2024-02-26T07:21:54;13.27;;;11.70;;
83560;SDS011;73534;52.584;13.392;2024-02-26T07:24:19;15.45;;;11.70;;
83560;SDS011;73534;52.584;13.392;2024-02-26T07:26:44;13.90;;;11.38;;
83560;SDS011;73534;52.584;13.392;2024-02-26T07:29:09;14.05;;;11.27;;
83560;SDS011;73534;52.584;13.392;2024-02-26T07:31:34;12.35;;;11.07;;
83560;SDS011;73534;52.584;13.392;2024-02-26T07:33:59;13.13;;;11.75;;
83560;SDS011;73534;52.584;13.392;2024-02-26T07:36:25;14.05;;;10.85;;
83560;SDS011;73534;52.584;13.392;2024-02-26T07:38:50;13.60;;;11.07;;
83560;SDS011;73534;52.584;13.392;2024-02-26T07:41:17;13.43;;;11.20;;
83560;SDS011;73534;52.584;13.392;2024-02-26T07:43:42;14.05;;;12.30;;
83560;SDS011;73534;52.584;13.392;2024-02-26T07:46:07;15.30;;;11.93;;
83560;SDS011;73534;52.584;13.392;2024-02-26T07:48:32;18.70;;;13.07;;
83560;SDS011;73534;52.584;13.392;2024-02-26T07:50:58;16.00;;;11.95;;
83560;SDS011;73534;52.584;13.392;2024-02-26T07:53:25;17.20;;;13.23;;
83560;SDS011;73534;52.584;13.392;2024-02-26T07:55:50;14.90;;;13.20;;
83560;SDS011;73534;52.584;13.392;2024-02-26T07:58:15;15.60;;;12.63;;
83560;SDS011;73534;52.584;13.392;2024-02-26T08:00:40;16.73;;;13.88;;
83560;SDS011;73534;52.584;13.392;2024-02-26T08:03:05;17.60;;;14.13;;
83560;SDS011;73534;52.584;13.392;2024-02-26T08:05:30;15.68;;;13.20;;
83560;SDS011;73534;52.584;13.392;2024-02-26T08:07:55;16.27;;;13.75;;
83560;SDS011;73534;52.584;13.392;2024-02-26T08:10:21;16.60;;;13.60;;
83560;SDS011;73534;52.584;13.392;2024-02-26T08:12:46;17.30;;;13.77;;
83560;SDS011;73534;52.584;13.392;2024-02-26T08:15:11;16.83;;;12.63;;
83560;SDS011;73534;52.584;13.392;2024-02-26T08:17:36;16.55;;;13.57;;
83560;SDS011;73534;52.584;13.392;2024-02-26T08:20:01;18.63;;;13.57;;
83560;SDS011;73534;52.584;13.392;2024-02-26T08:22:27;17.75;;;13.55;;
83560;SDS011;73534;52.584;13.392;2024-02-26T08:24:52;18.60;;;13.10;;
83560;SDS011;73534;52.584;13.392;2024-02-26T08:27:17;17.77;;;13.38;;
83560;SDS011;73534;52.584;13.392;2024-02-26T08:29:43;17.75;;;14.20;;
83560;SDS011;73534;52.584;13.392;2024-02-26T08:32:08;20.27;;;13.97;;
83560;SDS011;73534;52.584;13.392;2024-02-26T08:34:33;17.93;;;13.97;;
83560;SDS011;73534;52.584;13.392;2024-02-26T08:36:58;19.50;;;13.65;;
83560;SDS011;73534;52.584;13.392;2024-02-26T08:39:23;16.58;;;13.13;;
83560;SDS011;73534;52.584;13.392;2024-02-26T08:41:48;17.70;;;13.37;;
83560;SDS011;73534;52.584;13.392;2024-02-26T08:44:13;15.73;;;13.55;;
83560;SDS011;73534;52.584;13.392;2024-02-26T08:46:39;18.53;;;13.97;;
83560;SDS011;73534;52.584;13.392;2024-02-26T08:49:04;16.65;;;13.80;;
83560;SDS011;73534;52.584;13.392;2024-02-26T08:51:29;18.60;;;13.73;;
83560;SDS011;73534;52.584;13.392;2024-02-26T08:53:54;18.95;;;14.40;;
83560;SDS011;73534;52.584;13.392;2024-02-26T08:56:19;18.02;;;13.65;;
83560;SDS011;73534;52.584;13.392;2024-02-26T08:58:46;18.33;;;14.30;;
83560;SDS011;73534;52.584;13.392;2024-02-26T09:01:13;18.30;;;13.98;;
83560;SDS011;73534;52.584;13.392;2024-02-26T09:03:38;16.53;;;14.30;;
83560;SDS011;73534;52.584;13.392;2024-02-26T09:06:05;19.60;;;13.75;;
83560;SDS011;73534;52.584;13.392;2024-02-26T09:08:31;18.95;;;15.05;;
83560;SDS011;73534;52.584;13.392;2024-02-26T09:10:56;17.43;;;14.03;;
83560;SDS011;73534;52.584;13.392;2024-02-26T09:13:22;17.33;;;13.88;;
83560;SDS011;73534;52.584;13.392;2024-02-26T09:15:47;15.80;;;13.80;;
83560;SDS011;73534;52.584;13.392;2024-02-26T09:18:12;17.85;;;13.90;;
83560;SDS011;73534;52.584;13.392;2024-02-26T09:20:38;18.98;;;13.43;;
83560;SDS011;73534;52.584;13.392;2024-02-26T09:23:03;19.02;;;14.80;;
83560;SDS011;73534;52.584;13.392;2024-02-26T09:25:29;17.33;;;13.77;;
83560;SDS011;73534;52.584;13.392;2024-02-26T09:27:54;17.98;;;13.10;;
83560;SDS011;73534;52.584;13.392;2024-02-26T09:30:19;16.48;;;13.45;;
83560;SDS011;73534;52.584;13.392;2024-02-26T09:32:45;16.10;;;13.67;;
83560;SDS011;73534;52.584;13.392;2024-02-26T09:35:11;18.58;;;14.45;;
83560;SDS011;73534;52.584;13.392;2024-02-26T09:37:36;16.13;;;13.90;;
83560;SDS011;73534;52.584;13.392;2024-02-26T09:40:02;16.60;;;13.85;;
83560;SDS011;73534;52.584;13.392;2024-02-26T09:42:28;18.13;;;13.95;;
83560;SDS011;73534;52.584;13.392;2024-02-26T09:44:56;19.38;;;14.48;;
83560;SDS011;73534;52.584;13.392;2024-02-26T09:47:26;14.95;;;12.35;;
83560;SDS011;73534;52.584;13.392;2024-02-26T09:49:52;16.23;;;14.40;;
83560;SDS011;73534;52.584;13.392;2024-02-26T09:52:18;18.85;;;13.65;;
83560;SDS011;73534;52.584;13.392;2024-02-26T09:54:46;17.67;;;13.98;;
83560;SDS011;73534;52.584;13.392;2024-02-26T09:57:12;16.88;;;13.45;;
83560;SDS011;73534;52.584;13.392;2024-02-26T09:59:41;15.38;;;13.02;;
83560;SDS011;73534;52.584;13.392;2024-02-26T10:02:11;18.25;;;13.15;;
83560;SDS011;73534;52.584;13.392;2024-02-26T10:04:36;16.90;;;13.18;;
83560;SDS011;73534;52.584;13.392;2024-02-26T10:07:02;15.68;;;13.48;;
83560;SDS011;73534;52.584;13.392;2024-02-26T10:12:33;16.60;;;13.25;;
83560;SDS011;73534;52.584;13.392;2024-02-26T10:14:58;16.80;;;12.50;;
83560;SDS011;73534;52.584;13.392;2024-02-26T10:17:23;18.40;;;12.27;;
83560;SDS011;73534;52.584;13.392;2024-02-26T10:19:49;15.35;;;13.75;;
83560;SDS011;73534;52.584;13.392;2024-02-26T10:22:16;15.70;;;12.70;;
83560;SDS011;73534;52.584;13.392;2024-02-26T10:24:41;15.70;;;13.45;;
83560;SDS011;73534;52.584;13.392;2024-02-26T10:27:06;16.27;;;12.83;;
83560;SDS011;73534;52.584;13.392;2024-02-26T10:29:34;15.73;;;12.15;;
83560;SDS011;73534;52.584;13.392;2024-02-26T10:31:59;17.92;;;13.75;;
83560;SDS011;73534;52.584;13.392;2024-02-26T10:34:24;15.40;;;12.90;;
83560;SDS011;73534;52.584;13.392;2024-02-26T10:36:51;14.57;;;12.02;;
83560;SDS011;73534;52.584;13.392;2024-02-26T10:39:17;17.20;;;12.52;;
83560;SDS011;73534;52.584;13.392;2024-02-26T10:41:43;17.17;;;13.25;;
83560;SDS011;73534;52.584;13.392;2024-02-26T10:44:12;17.08;;;12.63;;
83560;SDS011;73534;52.584;13.392;2024-02-26T10:46:37;16.27;;;12.45;;
83560;SDS011;73534;52.584;13.392;2024-02-26T10:49:03;14.55;;;12.68;;
83560;SDS011;73534;52.584;13.392;2024-02-26T10:51:29;14.57;;;12.43;;
83560;SDS011;73534;52.584;13.392;2024-02-26T10:53:55;13.40;;;11.40;;
83560;SDS011;73534;52.584;13.392;2024-02-26T10:56:26;13.68;;;10.77;;
83560;SDS011;73534;52.584;13.392;2024-02-26T10:58:52;14.77;;;10.75;;
83560;SDS011;73534;52.584;13.392;2024-02-26T11:01:18;14.05;;;11.18;;
83560;SDS011;73534;52.584;13.392;2024-02-26T11:03:44;14.07;;;10.30;;
83560;SDS011;73534;52.584;13.392;2024-02-26T11:06:09;13.60;;;10.77;;
83560;SDS011;73534;52.584;13.392;2024-02-26T11:08:35;11.95;;;10.57;;
83560;SDS011;73534;52.584;13.392;2024-02-26T11:11:00;14.30;;;9.80;;
83560;SDS011;73534;52.584;13.392;2024-02-26T11:13:27;12.77;;;9.60;;
83560;SDS011;73534;52.584;13.392;2024-02-26T11:15:52;12.85;;;10.68;;
83560;SDS011;73534;52.584;13.392;2024-02-26T11:18:18;11.70;;;10.48;;
83560;SDS011;73534;52.584;13.392;2024-02-26T11:20:44;11.75;;;10.05;;
83560;SDS011;73534;52.584;13.392;2024-02-26T11:23:09;13.98;;;10.60;;
83560;SDS011;73534;52.584;13.392;2024-02-26T11:25:35;12.40;;;10.33;;
83560;SDS011;73534;52.584;13.392;2024-02-26T11:28:01;13.32;;;11.18;;
83560;SDS011;73534;52.584;13.392;2024-02-26T11:30:29;16.67;;;11.05;;
83560;SDS011;73534;52.584;13.392;2024-02-26T11:35:20;18.02;;;11.25;;
83560;SDS011;73534;52.584;13.392;2024-02-26T11:37:55;16.40;;;11.68;;
83560;SDS011;73534;52.584;13.392;2024-02-26T11:40:24;15.45;;;11.38;;
83560;SDS011;73534;52.584;13.392;2024-02-26T11:42:50;12.80;;;11.48;;
83560;SDS011;73534;52.584;13.392;2024-02-26T11:48:00;16.73;;;12.57;;
83560;SDS011;73534;52.584;13.392;2024-02-26T11:50:35;16.65;;;12.68;;
83560;SDS011;73534;52.584;13.392;2024-02-26T11:55:45;17.92;;;13.38;;
83560;SDS011;73534;52.584;13.392;2024-02-26T11:58:10;14.80;;;12.47;;
83560;SDS011;73534;52.584;13.392;2024-02-26T12:00:35;15.48;;;11.95;;
83560;SDS011;73534;52.584;13.392;2024-02-26T12:03:00;14.30;;;11.63;;
83560;SDS011;73534;52.584;13.392;2024-02-26T12:05:32;14.40;;;12.13;;
83560;SDS011;73534;52.584;13.392;2024-02-26T12:08:02;14.65;;;11.98;;
83560;SDS011;73534;52.584;13.392;2024-02-26T12:10:32;15.77;;;12.18;;
83560;SDS011;73534;52.584;13.392;2024-02-26T12:15:36;14.00;;;10.48;;
83560;SDS011;73534;52.584;13.392;2024-02-26T12:18:02;13.98;;;11.02;;
83560;SDS011;73534;52.584;13.392;2024-02-26T12:20:28;12.70;;;10.93;;
83560;SDS011;73534;52.584;13.392;2024-02-26T12:22:53;12.60;;;9.80;;
83560;SDS011;73534;52.584;13.392;2024-02-26T12:25:22;10.73;;;8.55;;
83560;SDS011;73534;52.584;13.392;2024-02-26T12:27:48;11.13;;;9.65;;
83560;SDS011;73534;52.584;13.392;2024-02-26T12:30:13;10.25;;;8.30;;
83560;SDS011;73534;52.584;13.392;2024-02-26T12:32:38;9.90;;;7.83;;
83560;SDS011;73534;52.584;13.392;2024-02-26T12:35:05;10.20;;;7.70;;
83560;SDS011;73534;52.584;13.392;2024-02-26T12:37:30;10.52;;;7.32;;
83560;SDS011;73534;52.584;13.392;2024-02-26T12:39:55;7.83;;;6.40;;
83560;SDS011;73534;52.584;13.392;2024-02-26T12:42:20;8.90;;;7.13;;
83560;SDS011;73534;52.584;13.392;2024-02-26T12:44:46;7.43;;;6.30;;
83560;SDS011;73534;52.584;13.392;2024-02-26T12:47:11;8.60;;;6.90;;
83560;SDS011;73534;52.584;13.392;2024-02-26T12:49:41;7.72;;;6.60;;
83560;SDS011;73534;52.584;13.392;2024-02-26T12:52:07;7.32;;;6.38;;
83560;SDS011;73534;52.584;13.392;2024-02-26T12:54:32;7.57;;;6.55;;
83560;SDS011;73534;52.584;13.392;2024-02-26T12:56:58;7.85;;;5.85;;
83560;SDS011;73534;52.584;13.392;2024-02-26T12:59:23;7.18;;;5.95;;
83560;SDS011;73534;52.584;13.392;2024-02-26T13:01:50;6.53;;;5.70;;
83560;SDS011;73534;52.584;13.392;2024-02-26T13:04:15;7.03;;;5.75;;
83560;SDS011;73534;52.584;13.392;2024-02-26T13:06:41;6.38;;;4.70;;
83560;SDS011;73534;52.584;13.392;2024-02-26T13:09:06;5.63;;;4.80;;
83560;SDS011;73534;52.584;13.392;2024-02-26T13:11:32;5.73;;;4.23;;
83560;SDS011;73534;52.584;13.392;2024-02-26T13:13:57;5.32;;;4.20;;
83560;SDS011;73534;52.584;13.392;2024-02-26T13:16:23;7.57;;;4.83;;
83560;SDS011;73534;52.584;13.392;2024-02-26T13:18:48;5.60;;;4.82;;
83560;SDS011;73534;52.584;13.392;2024-02-26T13:21:14;7.15;;;4.85;;
83560;SDS011;73534;52.584;13.392;2024-02-26T13:23:42;5.80;;;4.47;;
83560;SDS011;73534;52.584;13.392;2024-02-26T13:26:08;5.20;;;3.90;;
83560;SDS011;73534;52.584;13.392;2024-02-26T13:28:33;6.95;;;4.47;;
83560;SDS011;73534;52.584;13.392;2024-02-26T13:30:59;4.90;;;4.40;;
83560;SDS011;73534;52.584;13.392;2024-02-26T13:33:25;5.05;;;3.88;;
83560;SDS011;73534;52.584;13.392;2024-02-26T13:35:51;6.03;;;3.85;;
83560;SDS011;73534;52.584;13.392;2024-02-26T13:38:16;6.13;;;4.53;;
83560;SDS011;73534;52.584;13.392;2024-02-26T13:40:42;5.85;;;4.55;;
83560;SDS011;73534;52.584;13.392;2024-02-26T13:43:07;6.65;;;4.20;;
83560;SDS011;73534;52.584;13.392;2024-02-26T13:45:36;5.63;;;4.00;;
83560;SDS011;73534;52.584;13.392;2024-02-26T13:48:03;6.28;;;4.57;;
83560;SDS011;73534;52.584;13.392;2024-02-26T13:50:28;5.35;;;4.25;;
83560;SDS011;73534;52.584;13.392;2024-02-26T13:52:53;5.57;;;4.37;;
83560;SDS011;73534;52.584;13.392;2024-02-26T13:55:20;7.60;;;4.30;;
83560;SDS011;73534;52.584;13.392;2024-02-26T13:57:47;6.38;;;4.72;;
83560;SDS011;73534;52.584;13.392;2024-02-26T14:00:13;11.60;;;6.28;;
83560;SDS011;73534;52.584;13.392;2024-02-26T14:02:38;7.28;;;5.32;;
83560;SDS011;73534;52.584;13.392;2024-02-26T14:05:04;5.90;;;4.60;;
83560;SDS011;73534;52.584;13.392;2024-02-26T14:07:29;5.00;;;4.15;;
83560;SDS011;73534;52.584;13.392;2024-02-26T14:09:56;6.70;;;4.80;;
83560;SDS011;73534;52.584;13.392;2024-02-26T14:12:22;5.97;;;4.65;;
83560;SDS011;73534;52.584;13.392;2024-02-26T14:14:47;6.25;;;5.10;;